Data for 04/19/2005

Time Sea-Level Adjusted Pressure Absolute Pressure Temperature Relative Humidity Dew Point   
(mb) (inHg) (mb) (inHg) (C) (F) (%) (C) (F)
00:05 1016 30 845 24.95 0.1 32.2 100 0.1 32.2
00:10 1016 30 845 24.95 0.2 32.3 100 0.2 32.3
00:15 1016 30 845 24.95 0.1 32.2 100 0.1 32.2
00:20 1016 30 845 24.95 0.1 32.2 100 0.1 32.2
00:25 1016 30 845 24.95 0.1 32.2 100 0.1 32.2
00:30 1016 30 845 24.95 0.1 32.1 100 0.1 32.1
00:35 1016 30 845 24.95 0.2 32.3 100 0.2 32.3
00:40 1016 30 845 24.95 0.1 32.2 100 0.1 32.2
00:45 1016 30 845 24.95 0.1 32.2 100 0.1 32.2
00:50 1016 30 845 24.95 0.2 32.4 100 0.2 32.4
00:55 1016 30 845 24.95 0.2 32.3 100 0.2 32.3
01:00 1016 30 845 24.95 0.2 32.4 100 0.2 32.4
01:05 1016 30 845 24.95 0.2 32.4 100 0.2 32.4
01:10 1016 30 845 24.95 0.2 32.4 100 0.2 32.3
01:15 1016 30 845 24.95 0.3 32.6 99 0.2 32.3
01:20 1016 30 845 24.95 0.3 32.6 99 0.2 32.3
01:25 1016 30 845 24.95 0.4 32.7 98 0.1 32.2
01:30 1016 30 845 24.95 0.3 32.6 99 0.2 32.3
01:35 1016 30 845 24.95 0.1 32.3 100 0.1 32.2
01:40 1016 30 845 24.95 0.1 32.1 100 0.1 32.1
01:45 1016 30 845 24.95 0.1 32.2 100 0.1 32.2
01:50 1016 30 845 24.95 0 32.1 100 0 32.1
01:55 1016 30 845 24.95 0.1 32.1 100 0.1 32.1
02:00 1016 30 845 24.95 -0 32 100 -0 32
02:05 1016 30 845 24.95 0 32 100 0 32
02:10 1016 30 845 24.95 0 32.1 100 0 32.1
02:15 1016 30 845 24.95 0.1 32.3 100 0.1 32.3
02:20 1016 30 845 24.95 0.3 32.5 100 0.3 32.5
02:25 1016 30 845 24.95 0.4 32.6 100 0.3 32.5
02:30 1016 30 845 24.95 0.4 32.7 99 0.3 32.5
02:35 1016 30 845 24.95 0.4 32.8 99 0.3 32.6
02:40 1016 30 845 24.95 0.5 32.9 98 0.2 32.4
02:45 1016 30 845 24.95 0.5 32.9 99 0.3 32.5
02:50 1016 30 845 24.95 0.6 33 96 0 32.1
02:55 1016 30 845 24.95 0.4 32.8 98 0.1 32.2
03:00 1016 30 845 24.95 0.3 32.6 99 0.1 32.2
03:05 1016 30 845 24.95 0.4 32.7 98 0.1 32.1
03:10 1016 30 845 24.95 0.4 32.6 98 0.1 32.1
03:15 1016 30 845 24.95 0.3 32.5 97 -0.2 31.7
03:20 1016 30 845 24.95 0.6 33.1 95 -0.2 31.7
03:25 1016 30 845 24.95 0.7 33.3 93 -0.3 31.5
03:30 1016 30 845 24.95 0.9 33.5 92 -0.3 31.5
03:35 1016 30 845 24.95 0.8 33.4 94 -0 32
03:40 1016 30 845 24.95 0.6 33 93 -0.4 31.3
03:45 1016 30 845 24.95 0.8 33.4 91 -0.6 30.9
03:50 1016 30 845 24.95 1 33.8 89 -0.6 31
03:55 1016 30 845 24.95 1 33.8 89 -0.6 30.9
04:00 1016 30 845 24.95 1.1 34 88 -0.7 30.7
04:05 1016 30 845 24.95 1.1 34 89 -0.5 31
04:10 1016 30 845 24.95 1 33.8 89 -0.6 31
04:15 1016 30 845 24.95 0.9 33.7 90 -0.5 31.1
04:20 1016 30 845 24.95 0.9 33.6 89 -0.8 30.6
04:25 1016 30 845 24.95 1 33.8 89 -0.6 30.9
04:30 1016 30 845 24.95 1 33.8 90 -0.5 31
04:35 1016 30 845 24.95 0.9 33.6 90 -0.5 31
04:40 1016 30 845 24.95 0.8 33.5 90 -0.5 31
04:45 1016 30 845 24.95 0.8 33.5 90 -0.6 30.9
04:50 1016 30 845 24.95 0.9 33.6 90 -0.5 31
04:55 1016 30 845 24.95 0.9 33.6 91 -0.4 31.3
05:00 1016 30 845 24.95 0.8 33.4 91 -0.6 30.9
05:05 1016 30 845 24.95 0.8 33.5 91 -0.5 31.1
05:10 1016 30 845 24.95 0.9 33.5 91 -0.4 31.2
05:15 1016 30 845 24.95 0.8 33.4 91 -0.5 31
05:20 1016 30 845 24.95 0.7 33.3 94 -0.1 31.8
05:25 1016 30 845 24.95 0.2 32.4 98 -0.1 31.9
05:30 1016 30 845 24.95 0 32.1 99 -0.1 31.8
05:35 1016 30 845 24.95 0.2 32.3 95 -0.6 31
05:40 1016 30 845 24.95 0.6 33.1 92 -0.6 30.9
05:45 1016 30 845 24.95 0.8 33.4 91 -0.6 30.9
05:50 1016 30 845 24.95 0.8 33.4 90 -0.6 30.9
05:55 1016 30 845 24.95 0.8 33.4 91 -0.5 31
06:00 1016 30 845 24.95 0.7 33.3 90 -0.7 30.8
06:05 1016 30 845 24.95 0.8 33.4 90 -0.7 30.7
06:10 1016 30 845 24.95 0.8 33.4 91 -0.6 30.9
06:15 1016 30 845 24.95 0.7 33.3 90 -0.7 30.7
06:20 1016 30 845 24.95 0.8 33.4 90 -0.7 30.8
06:25 1016 30 846 24.98 0.8 33.5 90 -0.7 30.8
06:30 1016 30 846 24.98 0.9 33.6 90 -0.5 31
06:35 1016 30 846 24.98 0.9 33.6 91 -0.5 31.1
06:40 1017 30.03 846 24.98 0.9 33.6 91 -0.5 31.1
06:45 1017 30.03 846 24.98 0.9 33.6 91 -0.4 31.2
06:50 1017 30.03 846 24.98 0.8 33.5 91 -0.4 31.2
06:55 1017 30.03 846 24.98 0.8 33.5 91 -0.4 31.3
07:00 1017 30.03 846 24.98 0.7 33.3 92 -0.5 31.1
07:05 1017 30.03 846 24.98 0.8 33.4 92 -0.4 31.2
07:10 1017 30.03 846 24.98 0.8 33.4 92 -0.4 31.3
07:15 1017 30.03 846 24.98 0.8 33.4 92 -0.4 31.2
07:20 1017 30.03 846 24.98 0.8 33.4 92 -0.4 31.3
07:25 1017 30.03 846 24.98 0.7 33.3 92 -0.5 31.1
07:30 1017 30.03 846 24.98 0.8 33.4 91 -0.5 31
07:35 1017 30.03 846 24.98 0.8 33.4 91 -0.5 31.1
07:40 1017 30.03 846 24.98 0.8 33.5 91 -0.5 31
07:45 1017 30.03 846 24.98 0.8 33.5 91 -0.5 31
07:50 1017 30.03 846 24.98 0.7 33.3 91 -0.5 31.1
07:55 1017 30.03 846 24.98 0.8 33.4 91 -0.5 31.2
08:00 1017 30.03 846 24.98 0.8 33.4 91 -0.5 31
08:05 1017 30.03 846 24.98 0.9 33.6 91 -0.5 31.1
08:10 1017 30.03 846 24.98 0.9 33.6 90 -0.5 31
08:15 1017 30.03 846 24.98 0.9 33.6 90 -0.6 31
08:20 1017 30.03 846 24.98 0.9 33.7 90 -0.5 31
08:25 1017 30.03 846 24.98 1.1 33.9 88 -0.8 30.6
08:30 1017 30.03 846 24.98 1.2 34.1 87 -0.7 30.8
08:35 1017 30.03 846 24.98 1.2 34.2 87 -0.7 30.8
08:40 1017 30.03 846 24.98 1.2 34.2 87 -0.6 30.9
08:45 1017 30.03 846 24.98 1.3 34.3 87 -0.6 30.9
08:50 1017 30.03 846 24.98 1.3 34.4 85 -0.9 30.4
08:55 1017 30.03 847 25.01 1.4 34.5 86 -0.7 30.7
09:00 1017 30.03 847 25.01 1.4 34.5 86 -0.7 30.8
09:05 1017 30.03 847 25.01 1.4 34.6 84 -0.9 30.3
09:10 1017 30.03 847 25.01 1.4 34.5 85 -0.9 30.4
09:15 1018 30.06 847 25.01 1.4 34.4 86 -0.8 30.6
09:20 1018 30.06 847 25.01 1.2 34.2 86 -0.9 30.4
09:25 1018 30.06 847 25.01 1.3 34.4 86 -0.8 30.5
09:30 1018 30.06 847 25.01 1.3 34.4 86 -0.7 30.7
09:35 1018 30.06 847 25.01 1.5 34.8 85 -0.7 30.7
09:40 1018 30.06 847 25.01 1.5 34.6 85 -0.7 30.7
09:45 1018 30.06 847 25.01 1.4 34.5 85 -0.8 30.6
09:50 1018 30.06 847 25.01 1.3 34.4 86 -0.7 30.7
09:55 1018 30.06 847 25.01 1.4 34.5 87 -0.5 31.1
10:00 1018 30.06 847 25.01 1.5 34.6 87 -0.5 31
10:05 1018 30.06 847 25.01 1.6 34.8 86 -0.6 31
10:10 1018 30.06 847 25.01 1.6 34.9 87 -0.4 31.3
10:15 1018 30.06 847 25.01 1.7 35 84 -0.7 30.7
10:20 1018 30.06 847 25.01 1.7 35.1 85 -0.5 31
10:25 1018 30.06 847 25.01 1.7 35 84 -0.7 30.8
10:30 1018 30.06 847 25.01 1.8 35.2 84 -0.6 30.9
10:35 1018 30.06 847 25.01 1.7 35.1 86 -0.4 31.3
10:40 1018 30.06 847 25.01 1.7 35.1 84 -0.7 30.7
10:45 1018 30.06 847 25.01 1.8 35.3 83 -0.8 30.6
10:50 1018 30.06 847 25.01 1.8 35.2 84 -0.7 30.7
10:55 1018 30.06 847 25.01 1.9 35.3 83 -0.7 30.7
11:00 1018 30.06 847 25.01 2.3 36.1 80 -0.8 30.5
11:05 1018 30.06 847 25.01 2.3 36.2 78 -1.1 30.1
11:10 1018 30.06 847 25.01 2.3 36.1 78 -1.2 29.9
11:15 1018 30.06 847 25.01 2.3 36.2 78 -1 30.2
11:20 1018 30.06 847 25.01 2.3 36.2 79 -0.9 30.3
11:25 1018 30.06 847 25.01 2.2 35.9 80 -1 30.2
11:30 1018 30.06 847 25.01 2.2 36 80 -0.8 30.6
11:35 1018 30.06 847 25.01 2.4 36.2 80 -0.7 30.7
11:40 1018 30.06 847 25.01 2.4 36.3 79 -0.8 30.6
11:45 1018 30.06 847 25.01 2.6 36.6 78 -0.9 30.4
11:50 1018 30.06 847 25.01 2.4 36.4 78 -1 30.2
11:55 1018 30.06 847 25.01 2.5 36.6 78 -1 30.2
12:00 1018 30.06 847 25.01 2.7 36.8 76 -1.2 29.9
12:05 1018 30.06 847 25.01 2.8 37 77 -0.8 30.6
12:10 1018 30.06 847 25.01 2.8 37.1 77 -0.8 30.5
12:15 1018 30.06 847 25.01 3 37.5 75 -0.9 30.3
12:20 1018 30.06 847 25.01 3 37.4 76 -0.9 30.3
12:25 1018 30.06 847 25.01 2.8 37 76 -1 30.3
12:30 1018 30.06 847 25.01 3 37.5 76 -0.8 30.6
12:35 1018 30.06 847 25.01 3.2 37.8 76 -0.7 30.8
12:40 1018 30.06 847 25.01 3 37.3 78 -0.5 31.1
12:45 1018 30.06 847 25.01 2.9 37.2 77 -0.7 30.7
12:50 1018 30.06 847 25.01 2.7 36.8 78 -0.7 30.7
12:55 1018 30.06 847 25.01 2.8 37 77 -0.9 30.4
13:00 1018 30.06 847 25.01 2.7 36.8 78 -0.8 30.5
13:05 1018 30.06 847 25.01 2.8 37.1 77 -0.8 30.5
13:10 1018 30.06 847 25.01 3 37.4 77 -0.7 30.7
13:15 1018 30.06 847 25.01 3 37.5 76 -0.7 30.7
13:20 1018 30.06 847 25.01 3.1 37.6 76 -0.8 30.6
13:25 1018 30.06 847 25.01 2.8 37.1 77 -0.9 30.4
13:30 1018 30.06 847 25.01 2.8 37 76 -1 30.2
13:35 1018 30.06 847 25.01 2.6 36.7 76 -1.2 29.8
13:40 1018 30.06 847 25.01 2.7 36.9 76 -1 30.1
13:45 1018 30.06 847 25.01 2.7 36.8 77 -1 30.2
13:50 1018 30.06 847 25.01 2.8 37 75 -1.3 29.7
13:55 1018 30.06 847 25.01 2.9 37.1 75 -1.2 29.9
14:00 1018 30.06 847 25.01 2.9 37.2 75 -1.1 30
14:05 1018 30.06 847 25.01 3 37.4 75 -1 30.3
14:10 1018 30.06 847 25.01 3.1 37.6 73 -1.3 29.7
14:15 1018 30.06 847 25.01 3.2 37.8 74 -1 30.3
14:20 1018 30.06 847 25.01 2.9 37.2 74 -1.4 29.6
14:25 1018 30.06 847 25.01 2.6 36.8 75 -1.3 29.7
14:30 1018 30.06 847 25.01 2.8 37 74 -1.5 29.3
14:35 1018 30.06 847 25.01 2.7 36.9 74 -1.5 29.4
14:40 1018 30.06 847 25.01 2.7 36.9 74 -1.4 29.4
14:45 1018 30.06 847 25.01 2.6 36.8 75 -1.3 29.6
14:50 1018 30.06 847 25.01 2.4 36.2 76 -1.5 29.3
14:55 1018 30.06 848 25.04 2.4 36.3 76 -1.5 29.3
15:00 1018 30.06 847 25.01 2.3 36.1 76 -1.6 29.2
15:05 1018 30.06 848 25.04 2.2 36 76 -1.5 29.3
15:10 1018 30.06 848 25.04 2.2 36 76 -1.5 29.2
15:15 1018 30.06 848 25.04 2.2 35.9 76 -1.6 29.2
15:20 1018 30.06 848 25.04 2.1 35.8 77 -1.5 29.3
15:25 1018 30.06 848 25.04 2.1 35.7 77 -1.5 29.3
15:30 1018 30.06 848 25.04 1.9 35.5 78 -1.5 29.2
15:35 1018 30.06 848 25.04 2.1 35.9 77 -1.6 29.2
15:40 1018 30.06 848 25.04 2.1 35.9 76 -1.6 29.2
15:45 1018 30.06 848 25.04 2.2 36 76 -1.5 29.4
15:50 1018 30.06 848 25.04 2.1 35.9 76 -1.6 29.2
15:55 1018 30.06 848 25.04 2.2 36 76 -1.5 29.3
16:00 1018 30.06 848 25.04 2.3 36.2 75 -1.7 28.9
16:05 1018 30.06 847 25.01 2.3 36.1 74 -1.8 28.7
16:10 1018 30.06 847 25.01 2.2 36 75 -1.7 28.9
16:15 1018 30.06 847 25.01 2.1 35.7 78 -1.4 29.5
16:20 1018 30.06 847 25.01 1.8 35.2 81 -1.1 30
16:25 1018 30.06 847 25.01 1.7 35.1 82 -1 30.2
16:30 1018 30.06 847 25.01 1.7 35.1 82 -1.1 30
16:35 1018 30.06 847 25.01 1.6 34.8 82 -1.2 29.8
16:40 1018 30.06 847 25.01 1.6 34.8 82 -1.2 29.9
16:45 1018 30.06 847 25.01 1.6 34.8 83 -1 30.2
16:50 1018 30.06 847 25.01 1.6 34.9 83 -1 30.2
16:55 1018 30.06 847 25.01 1.6 34.9 84 -0.9 30.4
17:00 1018 30.06 847 25.01 1.5 34.7 84 -0.9 30.4
17:05 1018 30.06 847 25.01 1.3 34.4 86 -0.7 30.7
17:10 1018 30.06 847 25.01 1.2 34.2 88 -0.6 30.9
17:15 1018 30.06 847 25.01 1.1 33.9 89 -0.5 31.1
17:20 1018 30.06 847 25.01 1 33.8 89 -0.6 30.9
17:25 1018 30.06 847 25.01 1 33.8 89 -0.6 30.9
17:30 1018 30.06 848 25.04 1.2 34.2 87 -0.8 30.6
17:35 1018 30.06 848 25.04 1.3 34.3 86 -0.8 30.6
17:40 1018 30.06 848 25.04 1.2 34.1 87 -0.7 30.7
17:45 1018 30.06 848 25.04 1.2 34.2 86 -0.9 30.4
17:50 1018 30.06 847 25.01 1.3 34.3 85 -0.9 30.4
17:55 1018 30.06 847 25.01 1.3 34.4 85 -0.9 30.4
18:00 1018 30.06 847 25.01 1.3 34.3 86 -0.8 30.5
18:05 1018 30.06 847 25.01 1.1 34 87 -0.9 30.4
18:10 1018 30.06 847 25.01 1.1 33.9 88 -0.7 30.7
18:15 1018 30.06 847 25.01 1 33.8 89 -0.6 31
18:20 1018 30.06 847 25.01 0.8 33.4 93 -0.3 31.5
18:25 1018 30.06 847 25.01 0.7 33.3 92 -0.5 31.1
18:30 1018 30.06 847 25.01 0.9 33.5 92 -0.4 31.3
18:35 1018 30.06 847 25.01 1 33.7 91 -0.4 31.3
18:40 1018 30.06 847 25.01 1 33.9 90 -0.4 31.3
18:45 1018 30.06 847 25.01 1.2 34.1 88 -0.6 30.9
18:50 1018 30.06 847 25.01 1.2 34.2 87 -0.7 30.7
18:55 1018 30.06 847 25.01 1.4 34.6 86 -0.7 30.7
19:00 1018 30.06 847 25.01 1.5 34.8 84 -0.8 30.5
19:05 1018 30.06 847 25.01 1.6 34.8 84 -0.9 30.3
19:10 1018 30.06 847 25.01 1.7 35 82 -1.1 30
19:15 1018 30.06 847 25.01 1.7 35.1 82 -1 30.2
19:20 1018 30.06 847 25.01 1.7 35.1 81 -1.2 29.8
19:25 1018 30.06 847 25.01 1.7 35 81 -1.2 29.9
19:30 1018 30.06 847 25.01 1.7 35 81 -1.2 29.8
19:35 1018 30.06 847 25.01 1.7 35.1 82 -1.1 30
19:40 1018 30.06 847 25.01 1.8 35.2 81 -1.2 29.8
19:45 1018 30.06 847 25.01 1.8 35.2 81 -1.2 29.8
19:50 1018 30.06 847 25.01 1.8 35.2 80 -1.2 29.8
19:55 1018 30.06 847 25.01 1.8 35.2 80 -1.3 29.7
20:00 1018 30.06 847 25.01 1.7 35.1 82 -1.1 30.1
20:05 1018 30.06 847 25.01 1.6 34.9 83 -1 30.3
20:10 1018 30.06 847 25.01 1.6 34.8 84 -0.9 30.4
20:15 1018 30.06 847 25.01 1.4 34.5 85 -0.8 30.5
20:20 1018 30.06 847 25.01 1.4 34.5 84 -0.9 30.3
20:25 1018 30.06 847 25.01 1.4 34.6 84 -1.1 30.1
20:30 1018 30.06 847 25.01 1.4 34.5 83 -1.1 29.9
20:35 1018 30.06 848 25.04 1.5 34.6 83 -1.1 30
20:40 1018 30.06 847 25.01 1.5 34.6 83 -1.2 29.9
20:45 1018 30.06 848 25.04 1.5 34.7 82 -1.2 29.8
20:50 1018 30.06 848 25.04 1.5 34.7 82 -1.2 29.9
20:55 1018 30.06 848 25.04 1.5 34.7 82 -1.3 29.7
21:00 1018 30.06 847 25.01 1.4 34.6 83 -1.2 29.8
21:05 1018 30.06 847 25.01 1.4 34.5 83 -1.1 29.9
21:10 1018 30.06 847 25.01 1.4 34.6 82 -1.2 29.8
21:15 1018 30.06 848 25.04 1.4 34.6 82 -1.3 29.7
21:20 1018 30.06 848 25.04 1.5 34.6 82 -1.3 29.7
21:25 1018 30.06 848 25.04 1.5 34.7 82 -1.2 29.8
21:30 1018 30.06 848 25.04 1.5 34.8 82 -1.3 29.7
21:35 1019 30.09 848 25.04 1.6 34.9 81 -1.4 29.5
21:40 1019 30.09 848 25.04 1.7 35 80 -1.5 29.3
21:45 1019 30.09 848 25.04 1.7 35 80 -1.4 29.5
21:50 1019 30.09 848 25.04 1.7 35 80 -1.4 29.5
21:55 1019 30.09 848 25.04 1.6 34.9 81 -1.3 29.6
22:00 1019 30.09 848 25.04 1.5 34.8 81 -1.4 29.5
22:05 1018 30.06 848 25.04 1.5 34.8 80 -1.6 29.2
22:10 1018 30.06 847 25.01 1.6 34.9 80 -1.5 29.4
22:15 1018 30.06 847 25.01 1.5 34.7 81 -1.4 29.5
22:20 1018 30.06 847 25.01 1.6 34.9 79 -1.7 29
22:25 1018 30.06 847 25.01 1.7 35.1 79 -1.6 29.1
22:30 1018 30.06 847 25.01 1.8 35.3 77 -1.7 28.9
22:35 1018 30.06 847 25.01 1.9 35.4 77 -1.7 28.9
22:40 1018 30.06 847 25.01 2 35.6 77 -1.7 29
22:45 1018 30.06 847 25.01 2 35.5 77 -1.6 29.2
22:50 1018 30.06 847 25.01 1.9 35.4 78 -1.6 29.2
22:55 1018 30.06 847 25.01 1.8 35.3 79 -1.5 29.4
23:00 1018 30.06 847 25.01 1.7 35.1 79 -1.4 29.4
23:05 1018 30.06 847 25.01 1.6 35 80 -1.5 29.4
23:10 1018 30.06 847 25.01 1.6 34.9 81 -1.3 29.7
23:15 1018 30.06 847 25.01 1.5 34.8 82 -1.3 29.7
23:20 1018 30.06 847 25.01 1.5 34.7 82 -1.2 29.8
23:25 1018 30.06 847 25.01 1.5 34.6 83 -1.1 29.9
23:30 1018 30.06 847 25.01 1.4 34.6 83 -1.2 29.9
23:35 1018 30.06 847 25.01 1.4 34.5 83 -1.2 29.9
23:40 1018 30.06 847 25.01 1.4 34.5 84 -1 30.2
23:45 1018 30.06 847 25.01 1.3 34.3 86 -0.9 30.4
23:50 1018 30.06 847 25.01 1.2 34.1 86 -0.8 30.5
23:55 1018 30.06 847 25.01 1.2 34.1 86 -0.9 30.4
24:00 1017 30.03 847 25.01 1.2 34.2 85 -1 30.3